createdAt,value
2018-07-16T00:01:20.677Z,100.00
2018-07-16T00:03:48.880Z,100.00
2018-07-16T00:06:17.808Z,100.00
2018-07-16T00:08:46.293Z,100.00
2018-07-16T00:11:14.555Z,100.00
2018-07-16T00:13:42.765Z,100.00
2018-07-16T00:16:10.944Z,100.00
2018-07-16T00:18:39.131Z,100.00
2018-07-16T00:21:07.333Z,100.00
2018-07-16T00:23:35.529Z,100.00
2018-07-16T00:26:03.719Z,100.00
2018-07-16T00:28:31.967Z,100.00
2018-07-16T00:31:00.142Z,100.00
2018-07-16T00:33:28.335Z,100.00
2018-07-16T00:35:56.527Z,100.00
2018-07-16T00:38:24.710Z,100.00
2018-07-16T00:40:53.172Z,100.00
2018-07-16T00:43:21.374Z,100.00
2018-07-16T00:45:49.548Z,100.00
2018-07-16T00:48:17.734Z,100.00
2018-07-16T00:50:45.938Z,100.00
2018-07-16T00:53:14.120Z,100.00
2018-07-16T00:55:42.321Z,100.00
2018-07-16T00:58:10.518Z,100.00
2018-07-16T01:00:38.689Z,100.00
2018-07-16T01:03:06.873Z,100.00
2018-07-16T01:05:35.084Z,100.00
2018-07-16T01:08:03.317Z,100.00
2018-07-16T01:10:31.505Z,100.00
2018-07-16T01:12:59.689Z,100.00
2018-07-16T01:15:27.902Z,100.00
2018-07-16T01:17:56.097Z,100.00
2018-07-16T01:20:24.290Z,100.00
2018-07-16T01:22:52.470Z,100.00
2018-07-16T01:25:20.678Z,100.00
2018-07-16T01:27:49.836Z,100.00
2018-07-16T01:30:18.023Z,100.00
2018-07-16T01:32:46.551Z,100.00
2018-07-16T01:35:14.748Z,100.00
2018-07-16T01:37:42.982Z,100.00
2018-07-16T01:40:11.178Z,100.00
2018-07-16T01:42:39.373Z,100.00
2018-07-16T01:45:07.584Z,100.00
2018-07-16T01:47:35.757Z,100.00
2018-07-16T01:50:03.974Z,100.00
2018-07-16T01:52:32.173Z,100.00
2018-07-16T01:55:00.361Z,100.00
2018-07-16T01:57:28.613Z,100.00
2018-07-16T01:59:56.801Z,100.00
2018-07-16T02:02:25.027Z,100.00
2018-07-16T02:04:53.225Z,100.00
2018-07-16T02:07:21.413Z,100.00
2018-07-16T02:09:49.620Z,100.00
2018-07-16T02:12:17.809Z,100.00
2018-07-16T02:14:46.249Z,100.00
2018-07-16T02:17:14.432Z,100.00
2018-07-16T02:19:42.635Z,100.00
2018-07-16T02:22:10.811Z,100.00
2018-07-16T02:24:39.241Z,100.00
2018-07-16T02:27:07.443Z,100.00
2018-07-16T02:29:35.616Z,100.00
2018-07-16T02:32:03.807Z,100.00
2018-07-16T02:34:32.013Z,100.00
2018-07-16T02:37:00.207Z,100.00
2018-07-16T02:39:28.409Z,100.00
2018-07-16T02:41:56.603Z,100.00
2018-07-16T02:44:24.824Z,100.00
2018-07-16T02:46:53.035Z,100.00
2018-07-16T02:49:21.236Z,100.00
2018-07-16T02:51:56.107Z,100.00
2018-07-16T02:54:24.297Z,100.00
2018-07-16T02:56:52.773Z,100.00
2018-07-16T02:59:21.022Z,100.00
2018-07-16T03:01:49.240Z,100.00
2018-07-16T03:04:17.427Z,100.00
2018-07-16T03:06:45.687Z,100.00
2018-07-16T03:09:13.882Z,100.00
2018-07-16T03:11:42.062Z,100.00
2018-07-16T03:14:10.270Z,100.00
2018-07-16T03:16:38.468Z,100.00
2018-07-16T03:19:06.768Z,100.00
2018-07-16T03:21:34.954Z,100.00
2018-07-16T03:24:03.198Z,100.00
2018-07-16T03:26:31.392Z,100.00
2018-07-16T03:28:59.602Z,100.00
2018-07-16T03:31:27.811Z,100.00
2018-07-16T03:33:55.995Z,100.00
2018-07-16T03:36:24.226Z,100.00
2018-07-16T03:38:52.441Z,100.00
2018-07-16T03:41:20.641Z,100.00
2018-07-16T03:43:49.093Z,100.00
2018-07-16T03:46:17.881Z,100.00
2018-07-16T03:48:46.048Z,100.00
2018-07-16T03:51:14.226Z,100.00
2018-07-16T03:53:42.431Z,100.00
2018-07-16T03:56:10.613Z,100.00
2018-07-16T03:58:38.798Z,100.00
2018-07-16T04:01:07.390Z,100.00
2018-07-16T04:03:35.596Z,100.00
2018-07-16T04:06:03.782Z,100.00
2018-07-16T04:08:32.051Z,100.00
2018-07-16T04:11:00.234Z,100.00
2018-07-16T04:13:28.430Z,100.00
2018-07-16T04:15:56.634Z,100.00
2018-07-16T04:18:24.818Z,100.00
2018-07-16T04:20:53.026Z,100.00
2018-07-16T04:23:21.221Z,100.00
2018-07-16T04:25:49.421Z,100.00
2018-07-16T04:28:17.601Z,100.00
2018-07-16T04:30:45.808Z,100.00
2018-07-16T04:33:13.982Z,100.00
2018-07-16T04:35:42.536Z,100.00
2018-07-16T04:38:10.689Z,100.00
2018-07-16T04:40:38.889Z,100.00
2018-07-16T04:43:07.111Z,100.00
2018-07-16T04:45:35.609Z,100.00
2018-07-16T04:48:03.783Z,100.00
2018-07-16T04:50:32.019Z,100.00
2018-07-16T04:53:00.210Z,100.00
2018-07-16T04:55:28.401Z,100.00
2018-07-16T04:57:56.890Z,100.00
2018-07-16T05:00:25.087Z,100.00
2018-07-16T05:02:53.286Z,100.00
2018-07-16T05:05:21.490Z,100.00
2018-07-16T05:07:49.944Z,100.00
2018-07-16T05:10:18.124Z,100.00
2018-07-16T05:12:46.316Z,100.00
2018-07-16T05:15:14.508Z,100.00
2018-07-16T05:17:42.749Z,100.00
2018-07-16T05:20:10.933Z,100.00
2018-07-16T05:22:39.490Z,100.00
2018-07-16T05:25:07.743Z,100.00
2018-07-16T05:27:35.921Z,100.00
2018-07-16T05:30:04.156Z,100.00
2018-07-16T05:32:32.583Z,100.00
2018-07-16T05:35:00.633Z,100.00
2018-07-16T05:37:28.823Z,100.00
2018-07-16T05:39:57.348Z,100.00
2018-07-16T05:42:25.669Z,100.00
2018-07-16T05:44:53.857Z,100.00
2018-07-16T05:47:22.058Z,100.00
2018-07-16T05:49:50.262Z,100.00
2018-07-16T05:52:18.460Z,100.00
2018-07-16T05:54:46.663Z,100.00
2018-07-16T05:57:14.857Z,100.00
2018-07-16T05:59:43.048Z,100.00
2018-07-16T06:02:11.521Z,100.00
2018-07-16T06:04:39.727Z,100.00
2018-07-16T06:07:08.282Z,100.00
2018-07-16T06:09:36.490Z,100.00
2018-07-16T06:12:04.692Z,100.00
2018-07-16T06:14:32.974Z,100.00
2018-07-16T06:17:01.110Z,94.12
2018-07-16T06:19:29.294Z,92.35
2018-07-16T06:21:57.465Z,95.46
2018-07-16T06:24:25.875Z,83.04
2018-07-16T06:26:54.030Z,84.78
2018-07-16T06:29:22.206Z,86.53
2018-07-16T06:31:50.381Z,84.81
2018-07-16T06:34:18.549Z,80.73
2018-07-16T06:36:46.722Z,81.09
2018-07-16T06:39:14.935Z,83.44
2018-07-16T06:41:43.093Z,81.36
2018-07-16T06:44:11.273Z,89.43
2018-07-16T06:46:39.481Z,86.90
2018-07-16T06:49:07.658Z,88.44
2018-07-16T06:51:35.934Z,84.10
2018-07-16T06:54:04.166Z,88.41
2018-07-16T06:56:32.359Z,100.00
2018-07-16T06:59:00.558Z,100.00
2018-07-16T07:01:28.733Z,100.00
2018-07-16T07:03:56.986Z,100.00
2018-07-16T07:06:25.458Z,100.00
2018-07-16T07:08:53.951Z,100.00
2018-07-16T07:11:22.257Z,100.00
2018-07-16T07:13:50.477Z,100.00
2018-07-16T07:16:19.084Z,100.00
2018-07-16T07:18:47.338Z,100.00
2018-07-16T07:21:15.670Z,100.00
2018-07-16T07:23:44.378Z,97.29
2018-07-16T07:26:12.651Z,98.29
2018-07-16T07:28:40.914Z,100.00
2018-07-16T07:31:09.082Z,100.00
2018-07-16T07:33:37.326Z,100.00
2018-07-16T07:36:05.551Z,100.00
2018-07-16T07:38:33.771Z,98.78
2018-07-16T07:41:01.954Z,96.95
2018-07-16T07:43:30.242Z,98.63
2018-07-16T07:45:58.502Z,100.00
2018-07-16T07:48:27.344Z,95.72
2018-07-16T07:50:55.542Z,100.00
2018-07-16T07:53:23.781Z,100.00
2018-07-16T07:55:52.010Z,100.00
2018-07-16T07:58:20.198Z,100.00
2018-07-16T08:00:48.465Z,96.77
2018-07-16T08:03:16.805Z,93.69
2018-07-16T08:05:50.305Z,94.49
2018-07-16T08:08:18.493Z,96.95
2018-07-16T08:10:46.657Z,94.61
2018-07-16T08:13:14.883Z,96.28
2018-07-16T08:15:43.057Z,96.59
2018-07-16T08:18:11.341Z,88.44
2018-07-16T08:20:39.607Z,95.13
2018-07-16T08:23:08.023Z,91.92
2018-07-16T08:25:36.245Z,88.73
2018-07-16T08:28:04.508Z,85.49
2018-07-16T08:30:32.689Z,90.42
2018-07-16T08:33:01.114Z,81.99
2018-07-16T08:35:29.678Z,82.15
2018-07-16T08:37:57.933Z,81.83
2018-07-16T08:40:26.112Z,78.92
2018-07-16T08:42:54.457Z,78.99
2018-07-16T08:45:22.622Z,79.17
2018-07-16T08:47:50.790Z,75.68
2018-07-16T08:50:19.020Z,72.95
2018-07-16T08:52:47.312Z,71.46
2018-07-16T08:55:15.485Z,68.22
2018-07-16T08:57:43.752Z,67.55
2018-07-16T09:00:11.946Z,68.09
2018-07-16T09:02:40.133Z,74.74
2018-07-16T09:05:08.333Z,72.56
2018-07-16T09:07:36.494Z,73.55
2018-07-16T09:10:04.981Z,70.45
2018-07-16T09:12:33.754Z,74.88
2018-07-16T09:15:01.921Z,67.18
2018-07-16T09:17:30.101Z,75.01
2018-07-16T09:19:58.286Z,72.84
2018-07-16T09:22:26.493Z,75.73
2018-07-16T09:24:54.870Z,72.86
2018-07-16T09:27:23.059Z,74.03
2018-07-16T09:29:51.328Z,73.42
2018-07-16T09:32:19.515Z,61.59
2018-07-16T09:34:47.746Z,78.56
2018-07-16T09:37:15.963Z,73.78
2018-07-16T09:39:44.230Z,68.89
2018-07-16T09:42:12.406Z,65.20
2018-07-16T09:44:40.582Z,65.60
2018-07-16T09:47:08.749Z,69.80
2018-07-16T09:49:36.930Z,63.53
2018-07-16T09:52:05.130Z,62.11
2018-07-16T09:54:33.364Z,56.43
2018-07-16T09:57:01.569Z,60.14
2018-07-16T09:59:29.798Z,54.99
2018-07-16T10:02:03.316Z,53.25
2018-07-16T10:04:31.497Z,53.33
2018-07-16T10:06:59.685Z,54.45
2018-07-16T10:09:27.948Z,48.90
2018-07-16T10:11:56.233Z,52.38
2018-07-16T10:14:24.513Z,51.79
2018-07-16T10:16:52.773Z,46.39
2018-07-16T10:19:21.044Z,46.74
2018-07-16T10:21:49.254Z,46.13
2018-07-16T10:24:17.501Z,46.72
2018-07-16T10:26:45.670Z,46.04
2018-07-16T10:29:14.244Z,48.72
2018-07-16T10:31:42.521Z,46.06
2018-07-16T10:34:10.800Z,46.73
2018-07-16T10:36:39.073Z,47.50
2018-07-16T10:39:07.855Z,49.28
2018-07-16T10:41:36.273Z,47.80
2018-07-16T10:44:04.455Z,50.77
2018-07-16T10:46:32.647Z,50.27
2018-07-16T10:49:00.895Z,53.55
2018-07-16T10:51:29.150Z,49.11
2018-07-16T10:53:57.338Z,45.19
2018-07-16T10:56:25.592Z,48.97
2018-07-16T10:58:53.930Z,41.63
2018-07-16T11:01:22.125Z,41.55
2018-07-16T11:03:50.326Z,43.74
2018-07-16T11:06:22.954Z,51.33
2018-07-16T11:08:52.422Z,48.32
2018-07-16T11:11:20.689Z,42.15
2018-07-16T11:13:49.124Z,42.05
2018-07-16T11:16:17.490Z,43.47
2018-07-16T11:18:45.834Z,39.94
2018-07-16T11:21:14.028Z,35.66
2018-07-16T11:23:42.240Z,43.50
2018-07-16T11:26:10.462Z,35.32
2018-07-16T11:28:38.735Z,30.58
2018-07-16T11:31:07.001Z,28.92
2018-07-16T11:33:35.273Z,26.18
2018-07-16T11:36:03.467Z,24.79
2018-07-16T11:38:31.725Z,21.76
2018-07-16T11:40:59.901Z,28.86
2018-07-16T11:43:28.498Z,27.94
2018-07-16T11:45:56.683Z,21.50
2018-07-16T11:48:24.927Z,22.72
2018-07-16T11:50:53.114Z,23.36
2018-07-16T11:53:21.298Z,27.78
2018-07-16T11:55:49.462Z,22.54
2018-07-16T11:58:17.638Z,28.03
2018-07-16T12:00:46.126Z,22.86
2018-07-16T12:03:14.298Z,25.35
2018-07-16T12:05:42.470Z,27.69
2018-07-16T12:08:10.726Z,29.10
2018-07-16T12:10:38.894Z,29.16
2018-07-16T12:13:07.193Z,29.83
2018-07-16T12:15:35.365Z,32.83
2018-07-16T12:18:03.677Z,33.59
2018-07-16T12:20:31.888Z,31.25
2018-07-16T12:23:00.075Z,33.72
2018-07-16T12:25:28.261Z,34.51
2018-07-16T12:27:56.461Z,35.56
2018-07-16T12:30:24.633Z,33.99
2018-07-16T12:32:52.928Z,36.10
2018-07-16T12:35:21.169Z,40.67
2018-07-16T12:37:50.073Z,36.02
2018-07-16T12:40:18.327Z,35.78
2018-07-16T12:42:46.829Z,36.37
2018-07-16T12:45:15.104Z,32.99
2018-07-16T12:47:43.285Z,33.49
2018-07-16T12:50:11.481Z,29.08
2018-07-16T12:52:39.697Z,26.11
2018-07-16T12:55:07.971Z,30.64
2018-07-16T12:57:36.161Z,29.69
2018-07-16T13:00:04.382Z,28.63
2018-07-16T13:02:32.646Z,32.76
2018-07-16T13:05:01.454Z,33.34
2018-07-16T13:07:29.978Z,31.81
2018-07-16T13:09:58.252Z,32.31
2018-07-16T13:12:26.454Z,32.64
2018-07-16T13:14:54.700Z,31.94
2018-07-16T13:17:22.878Z,28.29
2018-07-16T13:19:51.061Z,26.28
2018-07-16T13:22:19.253Z,25.90
2018-07-16T13:24:47.567Z,28.05
2018-07-16T13:27:15.801Z,24.72
2018-07-16T13:29:44.158Z,26.24
2018-07-16T13:32:13.033Z,24.77
2018-07-16T13:34:41.546Z,23.80
2018-07-16T13:37:09.788Z,20.09
2018-07-16T13:39:38.283Z,17.53
2018-07-16T13:42:06.515Z,16.74
2018-07-16T13:44:34.723Z,16.73
2018-07-16T13:47:02.889Z,18.07
2018-07-16T13:49:31.180Z,15.09
2018-07-16T13:51:59.392Z,16.49
2018-07-16T13:54:27.560Z,17.11
2018-07-16T13:56:55.840Z,19.11
2018-07-16T13:59:24.082Z,20.85
2018-07-16T14:01:52.281Z,22.91
2018-07-16T14:04:20.554Z,21.80
2018-07-16T14:06:48.801Z,20.04
2018-07-16T14:09:16.981Z,19.10
2018-07-16T14:11:45.150Z,18.03
2018-07-16T14:14:13.426Z,20.58
2018-07-16T14:16:41.589Z,23.83
2018-07-16T14:19:09.850Z,21.35
2018-07-16T14:21:38.012Z,21.72
2018-07-16T14:24:06.221Z,20.35
2018-07-16T14:26:34.829Z,15.48
2018-07-16T14:29:03.082Z,17.11
2018-07-16T14:31:31.326Z,17.20
2018-07-16T14:33:59.880Z,20.28
2018-07-16T14:36:28.126Z,19.95
2018-07-16T14:38:56.320Z,16.69
2018-07-16T14:41:24.514Z,22.73
2018-07-16T14:43:52.769Z,21.33
2018-07-16T14:46:20.959Z,23.12
2018-07-16T14:48:49.285Z,19.57
2018-07-16T14:51:17.597Z,22.12
2018-07-16T14:53:45.885Z,22.52
2018-07-16T14:56:14.171Z,25.32
2018-07-16T14:58:42.421Z,23.31
2018-07-16T15:01:10.677Z,23.42
2018-07-16T15:03:38.979Z,22.58
2018-07-16T15:06:07.285Z,21.68
2018-07-16T15:08:35.514Z,21.70
2018-07-16T15:11:03.699Z,20.48
2018-07-16T15:13:31.864Z,21.94
2018-07-16T15:16:00.097Z,22.18
2018-07-16T15:18:28.508Z,22.08
2018-07-16T15:20:57.173Z,22.93
2018-07-16T15:23:25.314Z,23.63
2018-07-16T15:25:53.774Z,21.71
2018-07-16T15:28:22.053Z,22.00
2018-07-16T15:30:50.667Z,23.28
2018-07-16T15:33:18.894Z,24.17
2018-07-16T15:35:47.121Z,24.24
2018-07-16T15:38:15.354Z,21.84
2018-07-16T15:40:44.229Z,24.20
2018-07-16T15:43:13.759Z,26.26
2018-07-16T15:45:42.021Z,24.83
2018-07-16T15:48:10.350Z,25.32
2018-07-16T15:50:38.551Z,29.10
2018-07-16T15:53:06.850Z,28.48
2018-07-16T15:55:35.132Z,28.10
2018-07-16T15:58:03.394Z,25.46
2018-07-16T16:00:31.671Z,23.25
2018-07-16T16:02:59.971Z,22.95
2018-07-16T16:05:28.166Z,24.23
2018-07-16T16:07:56.345Z,24.33
2018-07-16T16:10:24.729Z,26.11
2018-07-16T16:12:53.277Z,27.75
2018-07-16T16:15:21.573Z,28.69
2018-07-16T16:17:50.267Z,28.38
2018-07-16T16:20:18.475Z,28.22
2018-07-16T16:22:46.796Z,32.81
2018-07-16T16:25:15.320Z,34.62
2018-07-16T16:27:43.498Z,36.93
2018-07-16T16:30:11.741Z,37.77
2018-07-16T16:32:40.046Z,37.89
2018-07-16T16:35:08.163Z,38.76
2018-07-16T16:37:36.427Z,39.78
2018-07-16T16:40:05.025Z,40.50
2018-07-16T16:42:33.293Z,41.32
2018-07-16T16:45:01.481Z,40.88
2018-07-16T16:47:29.751Z,42.48
2018-07-16T16:49:57.944Z,42.10
2018-07-16T16:52:26.132Z,42.53
2018-07-16T16:54:54.329Z,43.38
2018-07-16T16:57:22.519Z,44.15
2018-07-16T16:59:50.831Z,44.02
2018-07-16T17:02:19.082Z,45.79
2018-07-16T17:04:47.318Z,45.36
2018-07-16T17:07:15.490Z,46.30
2018-07-16T17:09:43.672Z,46.93
2018-07-16T17:12:11.854Z,47.20
2018-07-16T17:14:40.027Z,47.49
2018-07-16T17:17:08.380Z,48.70
2018-07-16T17:19:36.860Z,48.92
2018-07-16T17:22:05.122Z,50.61
2018-07-16T17:24:33.382Z,51.38
2018-07-16T17:27:01.558Z,52.64
2018-07-16T17:29:29.806Z,53.47
2018-07-16T17:31:58.014Z,54.64
2018-07-16T17:34:26.200Z,54.23
2018-07-16T17:36:54.417Z,54.05
2018-07-16T17:39:22.915Z,55.20
2018-07-16T17:41:51.236Z,54.14
2018-07-16T17:44:19.517Z,56.47
2018-07-16T17:46:47.790Z,56.82
2018-07-16T17:49:16.044Z,57.85
2018-07-16T17:51:44.281Z,59.92
2018-07-16T17:54:12.581Z,59.84
2018-07-16T17:56:40.745Z,58.97
2018-07-16T17:59:09.017Z,59.11
2018-07-16T18:01:37.345Z,60.84
2018-07-16T18:04:05.673Z,59.70
2018-07-16T18:06:34.591Z,58.90
2018-07-16T18:09:02.861Z,59.46
2018-07-16T18:11:31.108Z,60.30
2018-07-16T18:13:59.268Z,60.63
2018-07-16T18:16:27.455Z,64.49
2018-07-16T18:18:55.634Z,65.54
2018-07-16T18:21:23.936Z,64.66
2018-07-16T18:23:52.246Z,64.63
2018-07-16T18:26:20.460Z,67.36
2018-07-16T18:28:48.626Z,65.74
2018-07-16T18:31:16.834Z,65.04
2018-07-16T18:33:45.190Z,65.47
2018-07-16T18:36:13.374Z,68.01
2018-07-16T18:38:42.926Z,69.00
2018-07-16T18:41:13.460Z,71.00
2018-07-16T18:43:41.937Z,71.37
2018-07-16T18:46:10.209Z,73.63
2018-07-16T18:48:38.393Z,72.32
2018-07-16T18:51:06.606Z,71.51
2018-07-16T18:53:34.885Z,71.98
2018-07-16T18:56:03.361Z,71.98
2018-07-16T18:58:31.606Z,72.16
2018-07-16T19:00:59.799Z,71.50
2018-07-16T19:03:28.036Z,68.29
2018-07-16T19:05:56.249Z,69.41
2018-07-16T19:08:24.663Z,69.93
2018-07-16T19:10:52.913Z,72.94
2018-07-16T19:13:21.304Z,70.93
2018-07-16T19:15:49.569Z,68.73
2018-07-16T19:18:17.868Z,68.65
2018-07-16T19:20:46.058Z,69.57
2018-07-16T19:23:15.577Z,70.08
2018-07-16T19:25:43.768Z,70.37
2018-07-16T19:28:11.994Z,70.38
2018-07-16T19:30:40.654Z,72.32
2018-07-16T19:33:09.205Z,73.55
2018-07-16T19:35:37.760Z,74.10
2018-07-16T19:38:06.121Z,75.63
2018-07-16T19:40:34.409Z,78.01
2018-07-16T19:43:02.633Z,74.48
2018-07-16T19:45:30.967Z,76.51
2018-07-16T19:47:59.162Z,76.28
2018-07-16T19:50:27.471Z,78.60
2018-07-16T19:52:56.246Z,76.97
2018-07-16T19:55:24.474Z,78.90
2018-07-16T19:57:52.768Z,78.10
2018-07-16T20:00:21.049Z,77.01
2018-07-16T20:02:49.204Z,77.74
2018-07-16T20:05:17.406Z,77.92
2018-07-16T20:07:45.630Z,78.41
2018-07-16T20:10:13.812Z,80.99
2018-07-16T20:12:42.822Z,81.82
2018-07-16T20:15:15.604Z,81.65
2018-07-16T20:17:43.894Z,84.62
2018-07-16T20:20:12.129Z,86.69
2018-07-16T20:22:40.313Z,87.05
2018-07-16T20:25:08.900Z,87.17
2018-07-16T20:27:37.167Z,87.80
2018-07-16T20:30:07.481Z,88.64
2018-07-16T20:32:35.700Z,87.64
2018-07-16T20:35:03.970Z,89.16
2018-07-16T20:37:32.205Z,89.41
2018-07-16T20:40:00.401Z,92.20
2018-07-16T20:42:28.724Z,95.42
2018-07-16T20:44:56.914Z,100.00
2018-07-16T20:47:25.178Z,100.00
2018-07-16T20:49:53.458Z,100.00
2018-07-16T20:52:21.659Z,100.00
2018-07-16T20:54:49.968Z,100.00
2018-07-16T20:57:18.210Z,100.00
2018-07-16T20:59:46.726Z,100.00
2018-07-16T21:02:14.922Z,100.00
2018-07-16T21:04:43.258Z,100.00
2018-07-16T21:07:11.773Z,100.00
2018-07-16T21:09:39.957Z,100.00
2018-07-16T21:12:08.117Z,100.00
2018-07-16T21:14:36.325Z,100.00
2018-07-16T21:17:04.897Z,100.00
2018-07-16T21:19:33.109Z,100.00
2018-07-16T21:22:01.349Z,100.00
2018-07-16T21:24:29.567Z,100.00
2018-07-16T21:26:57.826Z,100.00
2018-07-16T21:29:26.969Z,100.00
2018-07-16T21:31:55.823Z,100.00
2018-07-16T21:34:25.056Z,100.00
2018-07-16T21:36:54.653Z,100.00
2018-07-16T21:39:22.854Z,100.00
2018-07-16T21:41:51.174Z,100.00
2018-07-16T21:44:19.418Z,100.00
2018-07-16T21:46:47.634Z,100.00
2018-07-16T21:49:15.842Z,100.00
2018-07-16T21:51:44.006Z,100.00
2018-07-16T21:54:12.296Z,100.00
2018-07-16T21:56:40.467Z,100.00
2018-07-16T21:59:08.686Z,100.00
2018-07-16T22:01:36.878Z,100.00
2018-07-16T22:04:05.343Z,100.00
2018-07-16T22:06:35.507Z,100.00
2018-07-16T22:09:04.833Z,100.00
2018-07-16T22:11:33.048Z,100.00
2018-07-16T22:14:01.285Z,100.00
2018-07-16T22:16:29.491Z,100.00
2018-07-16T22:18:57.765Z,100.00
2018-07-16T22:21:25.973Z,100.00
2018-07-16T22:23:54.261Z,100.00
2018-07-16T22:26:22.489Z,100.00
2018-07-16T22:28:51.081Z,100.00
2018-07-16T22:31:19.429Z,100.00
2018-07-16T22:33:47.626Z,100.00
2018-07-16T22:36:15.801Z,100.00
2018-07-16T22:38:44.055Z,100.00
2018-07-16T22:41:12.232Z,100.00
2018-07-16T22:43:40.395Z,100.00
2018-07-16T22:46:08.564Z,100.00
2018-07-16T22:48:36.750Z,100.00
2018-07-16T22:51:05.482Z,100.00
2018-07-16T22:53:33.805Z,100.00
2018-07-16T22:56:02.069Z,100.00
2018-07-16T22:58:30.978Z,100.00
2018-07-16T23:00:59.159Z,100.00
2018-07-16T23:03:27.326Z,100.00
2018-07-16T23:05:55.722Z,100.00
2018-07-16T23:08:23.898Z,100.00
2018-07-16T23:10:52.068Z,100.00
2018-07-16T23:13:20.281Z,100.00
2018-07-16T23:15:48.457Z,100.00
2018-07-16T23:18:16.717Z,100.00
2018-07-16T23:20:44.973Z,100.00
2018-07-16T23:23:13.181Z,100.00
2018-07-16T23:25:41.363Z,100.00
2018-07-16T23:28:09.541Z,100.00
2018-07-16T23:30:37.789Z,100.00
2018-07-16T23:33:06.330Z,100.00
2018-07-16T23:35:34.530Z,100.00
2018-07-16T23:38:02.729Z,100.00
2018-07-16T23:40:31.045Z,100.00
2018-07-16T23:42:59.220Z,100.00
2018-07-16T23:45:27.512Z,100.00
2018-07-16T23:47:55.746Z,100.00
2018-07-16T23:50:23.950Z,100.00
2018-07-16T23:52:52.102Z,100.00
2018-07-16T23:55:20.783Z,100.00
2018-07-16T23:57:49.026Z,100.00
